sensor_id;sensor_type;location;lat;lon;timestamp;pressure;altitude;pressure_sealevel;temperature;humidity
17855;BME280;9053;53.358;6.382;2022-12-07T00:01:55;101551.94;;;6.46;100.00
17855;BME280;9053;53.358;6.382;2022-12-07T00:04:25;101553.56;;;6.44;100.00
17855;BME280;9053;53.358;6.382;2022-12-07T00:06:58;101548.97;;;6.40;100.00
17855;BME280;9053;53.358;6.382;2022-12-07T00:09:28;101554.91;;;6.38;100.00
17855;BME280;9053;53.358;6.382;2022-12-07T00:11:58;101541.84;;;6.38;100.00
17855;BME280;9053;53.358;6.382;2022-12-07T00:14:28;101544.34;;;6.36;100.00
17855;BME280;9053;53.358;6.382;2022-12-07T00:16:57;101549.56;;;6.36;100.00
17855;BME280;9053;53.358;6.382;2022-12-07T00:19:27;101553.00;;;6.35;100.00
17855;BME280;9053;53.358;6.382;2022-12-07T00:22:00;101558.00;;;6.32;100.00
17855;BME280;9053;53.358;6.382;2022-12-07T00:24:29;101536.84;;;6.27;100.00
17855;BME280;9053;53.358;6.382;2022-12-07T00:26:59;101547.09;;;6.24;100.00
17855;BME280;9053;53.358;6.382;2022-12-07T00:29:29;101553.13;;;6.23;100.00
17855;BME280;9053;53.358;6.382;2022-12-07T00:31:59;101544.47;;;6.24;100.00
17855;BME280;9053;53.358;6.382;2022-12-07T00:34:29;101547.09;;;6.24;100.00
17855;BME280;9053;53.358;6.382;2022-12-07T00:37:02;101544.59;;;6.26;100.00
17855;BME280;9053;53.358;6.382;2022-12-07T00:39:31;101538.66;;;6.28;100.00
17855;BME280;9053;53.358;6.382;2022-12-07T00:42:01;101540.53;;;6.31;100.00
17855;BME280;9053;53.358;6.382;2022-12-07T00:44:31;101540.72;;;6.34;100.00
17855;BME280;9053;53.358;6.382;2022-12-07T00:47:00;101535.69;;;6.37;100.00
17855;BME280;9053;53.358;6.382;2022-12-07T00:49:30;101534.91;;;6.38;100.00
17855;BME280;9053;53.358;6.382;2022-12-07T00:52:03;101530.66;;;6.40;100.00
17855;BME280;9053;53.358;6.382;2022-12-07T00:54:33;101541.13;;;6.40;100.00
17855;BME280;9053;53.358;6.382;2022-12-07T00:57:02;101533.28;;;6.40;100.00
17855;BME280;9053;53.358;6.382;2022-12-07T00:59:32;101524.44;;;6.38;100.00
17855;BME280;9053;53.358;6.382;2022-12-07T01:02:02;101528.84;;;6.39;100.00
17855;BME280;9053;53.358;6.382;2022-12-07T01:04:33;101515.78;;;6.39;100.00
17855;BME280;9053;53.358;6.382;2022-12-07T01:07:05;101524.81;;;6.44;100.00
17855;BME280;9053;53.358;6.382;2022-12-07T01:09:35;101520.59;;;6.46;100.00
17855;BME280;9053;53.358;6.382;2022-12-07T01:12:05;101534.53;;;6.47;100.00
17855;BME280;9053;53.358;6.382;2022-12-07T01:14:35;101534.47;;;6.45;100.00
17855;BME280;9053;53.358;6.382;2022-12-07T01:17:04;101536.69;;;6.39;100.00
17855;BME280;9053;53.358;6.382;2022-12-07T01:19:34;101533.72;;;6.33;100.00
17855;BME280;9053;53.358;6.382;2022-12-07T01:22:07;101537.09;;;6.32;100.00
17855;BME280;9053;53.358;6.382;2022-12-07T01:24:36;101536.22;;;6.32;100.00
17855;BME280;9053;53.358;6.382;2022-12-07T01:27:06;101538.94;;;6.33;100.00
17855;BME280;9053;53.358;6.382;2022-12-07T01:29:36;101535.13;;;6.28;100.00
17855;BME280;9053;53.358;6.382;2022-12-07T01:32:06;101533.31;;;6.27;100.00
17855;BME280;9053;53.358;6.382;2022-12-07T01:34:36;101527.38;;;6.29;100.00
17855;BME280;9053;53.358;6.382;2022-12-07T01:37:08;101531.81;;;6.31;100.00
17855;BME280;9053;53.358;6.382;2022-12-07T01:39:38;101526.47;;;6.29;100.00
17855;BME280;9053;53.358;6.382;2022-12-07T01:42:09;101528.09;;;6.27;100.00
17855;BME280;9053;53.358;6.382;2022-12-07T01:47:38;101523.69;;;6.26;100.00
17855;BME280;9053;53.358;6.382;2022-12-07T01:50:08;101524.69;;;6.28;100.00
17855;BME280;9053;53.358;6.382;2022-12-07T01:52:42;101519.47;;;6.28;100.00
17855;BME280;9053;53.358;6.382;2022-12-07T01:55:15;101520.47;;;6.30;100.00
17855;BME280;9053;53.358;6.382;2022-12-07T01:57:48;101513.53;;;6.31;100.00
17855;BME280;9053;53.358;6.382;2022-12-07T02:00:19;101517.94;;;6.32;100.00
17855;BME280;9053;53.358;6.382;2022-12-07T02:02:53;101515.31;;;6.32;100.00
17855;BME280;9053;53.358;6.382;2022-12-07T02:05:25;101527.59;;;6.33;100.00
17855;BME280;9053;53.358;6.382;2022-12-07T02:07:59;101528.31;;;6.30;100.00
17855;BME280;9053;53.358;6.382;2022-12-07T02:10:30;101532.53;;;6.28;100.00
17855;BME280;9053;53.358;6.382;2022-12-07T02:13:03;101527.19;;;6.26;100.00
17855;BME280;9053;53.358;6.382;2022-12-07T02:15:44;101530.69;;;6.27;100.00
17855;BME280;9053;53.358;6.382;2022-12-07T02:18:19;101532.41;;;6.26;100.00
17855;BME280;9053;53.358;6.382;2022-12-07T02:20:54;101538.34;;;6.24;100.00
17855;BME280;9053;53.358;6.382;2022-12-07T02:24:03;101536.44;;;6.21;100.00
17855;BME280;9053;53.358;6.382;2022-12-07T02:29:42;101522.72;;;6.11;100.00
17855;BME280;9053;53.358;6.382;2022-12-07T02:32:18;101513.78;;;6.07;100.00
17855;BME280;9053;53.358;6.382;2022-12-07T02:34:56;101518.03;;;6.05;100.00
17855;BME280;9053;53.358;6.382;2022-12-07T02:37:34;101514.41;;;6.03;100.00
17855;BME280;9053;53.358;6.382;2022-12-07T02:40:09;101514.25;;;6.00;100.00
17855;BME280;9053;53.358;6.382;2022-12-07T02:42:44;101516.75;;;5.98;100.00
17855;BME280;9053;53.358;6.382;2022-12-07T02:45:20;101502.69;;;5.96;100.00
17855;BME280;9053;53.358;6.382;2022-12-07T02:47:51;101504.38;;;5.96;100.00
17855;BME280;9053;53.358;6.382;2022-12-07T02:50:22;101495.66;;;5.95;100.00
17855;BME280;9053;53.358;6.382;2022-12-07T02:52:52;101495.66;;;5.95;100.00
17855;BME280;9053;53.358;6.382;2022-12-07T02:55:28;101488.63;;;5.94;100.00
17855;BME280;9053;53.358;6.382;2022-12-07T02:58:16;101491.22;;;5.94;100.00
17855;BME280;9053;53.358;6.382;2022-12-07T03:01:03;101508.59;;;5.94;100.00
17855;BME280;9053;53.358;6.382;2022-12-07T03:03:35;101510.88;;;5.89;100.00
17855;BME280;9053;53.358;6.382;2022-12-07T03:06:11;101503.06;;;5.89;100.00
17855;BME280;9053;53.358;6.382;2022-12-07T03:08:50;101509.22;;;5.90;100.00
17855;BME280;9053;53.358;6.382;2022-12-07T03:11:25;101507.56;;;5.92;100.00
17855;BME280;9053;53.358;6.382;2022-12-07T03:14:01;101502.69;;;5.96;100.00
17855;BME280;9053;53.358;6.382;2022-12-07T03:16:41;101504.38;;;5.96;100.00
17855;BME280;9053;53.358;6.382;2022-12-07T03:19:15;101509.72;;;5.97;100.00
17855;BME280;9053;53.358;6.382;2022-12-07T03:21:53;101515.66;;;5.95;100.00
17855;BME280;9053;53.358;6.382;2022-12-07T03:24:27;101521.44;;;5.91;100.00
17855;BME280;9053;53.358;6.382;2022-12-07T03:27:01;101516.94;;;5.88;100.00
17855;BME280;9053;53.358;6.382;2022-12-07T03:29:35;101517.81;;;5.89;100.00
17855;BME280;9053;53.358;6.382;2022-12-07T03:32:15;101504.66;;;5.87;100.00
17855;BME280;9053;53.358;6.382;2022-12-07T03:34:49;101504.28;;;5.81;100.00
17855;BME280;9053;53.358;6.382;2022-12-07T03:37:26;101501.56;;;5.79;100.00
17855;BME280;9053;53.358;6.382;2022-12-07T03:40:03;101499.78;;;5.78;100.00
17855;BME280;9053;53.358;6.382;2022-12-07T03:42:36;101490.22;;;5.79;100.00
17855;BME280;9053;53.358;6.382;2022-12-07T03:45:07;101491.06;;;5.78;100.00
17855;BME280;9053;53.358;6.382;2022-12-07T03:47:44;101484.81;;;5.76;100.00
17855;BME280;9053;53.358;6.382;2022-12-07T03:50:22;101487.31;;;5.74;100.00
17855;BME280;9053;53.358;6.382;2022-12-07T03:52:58;101482.22;;;5.76;100.00
17855;BME280;9053;53.358;6.382;2022-12-07T03:55:31;101484.81;;;5.76;100.00
17855;BME280;9053;53.358;6.382;2022-12-07T03:58:05;101487.44;;;5.76;100.00
17855;BME280;9053;53.358;6.382;2022-12-07T04:00:35;101488.44;;;5.78;100.00
17855;BME280;9053;53.358;6.382;2022-12-07T04:03:09;101487.72;;;5.80;100.00
17855;BME280;9053;53.358;6.382;2022-12-07T04:05:39;101493.97;;;5.82;100.00
17855;BME280;9053;53.358;6.382;2022-12-07T04:08:10;101492.25;;;5.83;100.00
17855;BME280;9053;53.358;6.382;2022-12-07T04:10:39;101493.25;;;5.85;100.00
17855;BME280;9053;53.358;6.382;2022-12-07T04:13:09;101494.22;;;5.87;100.00
17855;BME280;9053;53.358;6.382;2022-12-07T04:15:39;101497.66;;;5.86;100.00
17855;BME280;9053;53.358;6.382;2022-12-07T04:18:11;101502.97;;;5.88;100.00
17855;BME280;9053;53.358;6.382;2022-12-07T04:20:41;101490.41;;;5.82;100.00
17855;BME280;9053;53.358;6.382;2022-12-07T04:23:11;101498.69;;;5.75;100.00
17855;BME280;9053;53.358;6.382;2022-12-07T04:25:41;101492.28;;;5.70;100.00
17855;BME280;9053;53.358;6.382;2022-12-07T04:28:10;101491.97;;;5.65;100.00
17855;BME280;9053;53.358;6.382;2022-12-07T04:30:40;101490.66;;;5.58;100.00
17855;BME280;9053;53.358;6.382;2022-12-07T04:33:12;101484.38;;;5.55;100.00
17855;BME280;9053;53.358;6.382;2022-12-07T04:35:42;101475.13;;;5.47;100.00
17855;BME280;9053;53.358;6.382;2022-12-07T04:38:12;101484.59;;;5.45;100.00
17855;BME280;9053;53.358;6.382;2022-12-07T04:40:42;101477.66;;;5.45;100.00
17855;BME280;9053;53.358;6.382;2022-12-07T04:43:11;101471.63;;;5.46;100.00
17855;BME280;9053;53.358;6.382;2022-12-07T04:45:45;101476.25;;;5.50;100.00
17855;BME280;9053;53.358;6.382;2022-12-07T04:48:18;101467.78;;;5.54;100.00
17855;BME280;9053;53.358;6.382;2022-12-07T04:50:47;101463.56;;;5.56;100.00
17855;BME280;9053;53.358;6.382;2022-12-07T04:53:18;101463.78;;;5.59;100.00
17855;BME280;9053;53.358;6.382;2022-12-07T04:55:48;101458.84;;;5.64;100.00
17855;BME280;9053;53.358;6.382;2022-12-07T04:58:18;101463.47;;;5.68;100.00
17855;BME280;9053;53.358;6.382;2022-12-07T05:00:48;101468.78;;;5.70;100.00
17855;BME280;9053;53.358;6.382;2022-12-07T05:03:20;101465.38;;;5.71;100.00
17855;BME280;9053;53.358;6.382;2022-12-07T05:05:50;101468.97;;;5.73;100.00
17855;BME280;9053;53.358;6.382;2022-12-07T05:08:19;101464.53;;;5.72;100.00
17855;BME280;9053;53.358;6.382;2022-12-07T05:10:49;101470.59;;;5.71;100.00
17855;BME280;9053;53.358;6.382;2022-12-07T05:13:19;101475.69;;;5.69;100.00
17855;BME280;9053;53.358;6.382;2022-12-07T05:15:49;101471.81;;;5.62;100.00
17855;BME280;9053;53.358;6.382;2022-12-07T05:18:22;101468.78;;;5.56;100.00
17855;BME280;9053;53.358;6.382;2022-12-07T05:20:52;101470.31;;;5.53;100.00
17855;BME280;9053;53.358;6.382;2022-12-07T05:23:21;101465.00;;;5.51;100.00
17855;BME280;9053;53.358;6.382;2022-12-07T05:25:51;101461.59;;;5.52;100.00
17855;BME280;9053;53.358;6.382;2022-12-07T05:28:21;101468.72;;;5.55;100.00
17855;BME280;9053;53.358;6.382;2022-12-07T05:30:51;101459.97;;;5.54;100.00
17855;BME280;9053;53.358;6.382;2022-12-07T05:33:28;101464.28;;;5.54;100.00
17855;BME280;9053;53.358;6.382;2022-12-07T05:35:57;101463.28;;;5.52;100.00
17855;BME280;9053;53.358;6.382;2022-12-07T05:38:32;101456.38;;;5.52;100.00
17855;BME280;9053;53.358;6.382;2022-12-07T05:41:02;101463.28;;;5.52;100.00
17855;BME280;9053;53.358;6.382;2022-12-07T05:43:33;101468.59;;;5.53;100.00
17855;BME280;9053;53.358;6.382;2022-12-07T05:46:03;101473.72;;;5.52;100.00
17855;BME280;9053;53.358;6.382;2022-12-07T05:48:36;101488.47;;;5.51;100.00
17855;BME280;9053;53.358;6.382;2022-12-07T05:51:05;101488.50;;;5.38;100.00
17855;BME280;9053;53.358;6.382;2022-12-07T05:53:35;101487.09;;;5.30;100.00
17855;BME280;9053;53.358;6.382;2022-12-07T05:56:06;101475.25;;;5.21;100.00
17855;BME280;9053;53.358;6.382;2022-12-07T05:58:36;101474.97;;;5.17;100.00
17855;BME280;9053;53.358;6.382;2022-12-07T06:01:23;101459.09;;;5.14;100.00
17855;BME280;9053;53.358;6.382;2022-12-07T06:03:56;101453.59;;;5.09;100.00
17855;BME280;9053;53.358;6.382;2022-12-07T06:06:25;101450.88;;;5.08;100.00
17855;BME280;9053;53.358;6.382;2022-12-07T06:08:55;101455.97;;;5.06;100.00
17855;BME280;9053;53.358;6.382;2022-12-07T06:11:25;101452.59;;;5.07;100.00
17855;BME280;9053;53.358;6.382;2022-12-07T06:14:07;101452.78;;;5.10;100.00
17855;BME280;9053;53.358;6.382;2022-12-07T06:16:37;101444.38;;;5.14;100.00
17855;BME280;9053;53.358;6.382;2022-12-07T06:19:09;101457.69;;;5.19;100.00
17855;BME280;9053;53.358;6.382;2022-12-07T06:21:39;101452.59;;;5.20;100.00
17855;BME280;9053;53.358;6.382;2022-12-07T06:24:11;101446.56;;;5.21;100.00
17855;BME280;9053;53.358;6.382;2022-12-07T06:26:41;101442.97;;;5.19;100.00
17855;BME280;9053;53.358;6.382;2022-12-07T06:29:12;101443.03;;;5.21;100.00
17855;BME280;9053;53.358;6.382;2022-12-07T06:31:42;101437.03;;;5.22;100.00
17855;BME280;9053;53.358;6.382;2022-12-07T06:34:16;101440.84;;;5.27;100.00
17855;BME280;9053;53.358;6.382;2022-12-07T06:36:46;101445.38;;;5.30;100.00
17855;BME280;9053;53.358;6.382;2022-12-07T06:39:19;101448.97;;;5.32;100.00
17855;BME280;9053;53.358;6.382;2022-12-07T06:41:49;101467.44;;;5.35;100.00
17855;BME280;9053;53.358;6.382;2022-12-07T06:44:21;101484.78;;;5.34;100.00
17855;BME280;9053;53.358;6.382;2022-12-07T06:46:52;101503.75;;;5.32;100.00
17855;BME280;9053;53.358;6.382;2022-12-07T06:49:44;101488.78;;;5.16;100.00
17855;BME280;9053;53.358;6.382;2022-12-07T06:52:14;101492.47;;;5.06;100.00
17855;BME280;9053;53.358;6.382;2022-12-07T06:54:44;101483.47;;;5.01;100.00
17855;BME280;9053;53.358;6.382;2022-12-07T06:57:13;101489.28;;;4.97;100.00
17855;BME280;9053;53.358;6.382;2022-12-07T06:59:43;101488.16;;;4.93;100.00
17855;BME280;9053;53.358;6.382;2022-12-07T07:02:13;101462.09;;;4.93;100.00
17855;BME280;9053;53.358;6.382;2022-12-07T07:04:45;101466.41;;;4.93;100.00
17855;BME280;9053;53.358;6.382;2022-12-07T07:07:15;101467.44;;;4.95;100.00
17855;BME280;9053;53.358;6.382;2022-12-07T07:09:45;101462.41;;;4.98;100.00
17855;BME280;9053;53.358;6.382;2022-12-07T07:12:14;101466.34;;;5.05;100.00
17855;BME280;9053;53.358;6.382;2022-12-07T07:14:44;101460.50;;;5.09;100.00
17855;BME280;9053;53.358;6.382;2022-12-07T07:17:14;101465.22;;;5.14;100.00
17855;BME280;9053;53.358;6.382;2022-12-07T07:19:47;101462.19;;;5.21;100.00
17855;BME280;9053;53.358;6.382;2022-12-07T07:22:17;101469.53;;;5.27;100.00
17855;BME280;9053;53.358;6.382;2022-12-07T07:24:46;101475.06;;;5.32;100.00
17855;BME280;9053;53.358;6.382;2022-12-07T07:27:16;101463.94;;;5.34;100.00
17855;BME280;9053;53.358;6.382;2022-12-07T07:29:46;101465.00;;;5.38;100.00
17855;BME280;9053;53.358;6.382;2022-12-07T07:32:15;101475.63;;;5.41;100.00
17855;BME280;9053;53.358;6.382;2022-12-07T07:34:48;101469.72;;;5.43;100.00
17855;BME280;9053;53.358;6.382;2022-12-07T07:37:18;101470.72;;;5.46;100.00
17855;BME280;9053;53.358;6.382;2022-12-07T07:39:48;101472.63;;;5.48;100.00
17855;BME280;9053;53.358;6.382;2022-12-07T07:42:17;101475.22;;;5.48;100.00
17855;BME280;9053;53.358;6.382;2022-12-07T07:44:47;101468.31;;;5.49;100.00
17855;BME280;9053;53.358;6.382;2022-12-07T07:47:17;101469.19;;;5.49;100.00
17855;BME280;9053;53.358;6.382;2022-12-07T07:49:49;101468.31;;;5.49;100.00
17855;BME280;9053;53.358;6.382;2022-12-07T07:52:19;101459.47;;;5.47;100.00
17855;BME280;9053;53.358;6.382;2022-12-07T07:54:49;101463.59;;;5.43;100.00
17855;BME280;9053;53.358;6.382;2022-12-07T07:57:19;101461.69;;;5.40;100.00
17855;BME280;9053;53.358;6.382;2022-12-07T07:59:49;101460.81;;;5.40;100.00
17855;BME280;9053;53.358;6.382;2022-12-07T08:02:19;101456.59;;;5.42;100.00
17855;BME280;9053;53.358;6.382;2022-12-07T08:04:52;101466.31;;;5.45;100.00
17855;BME280;9053;53.358;6.382;2022-12-07T08:07:22;101463.78;;;5.46;100.00
17855;BME280;9053;53.358;6.382;2022-12-07T08:09:51;101461.19;;;5.46;100.00
17855;BME280;9053;53.358;6.382;2022-12-07T08:12:21;101470.91;;;5.49;100.00
17855;BME280;9053;53.358;6.382;2022-12-07T08:14:51;101489.16;;;5.49;100.00
17855;BME280;9053;53.358;6.382;2022-12-07T08:17:21;101494.00;;;5.42;100.00
17855;BME280;9053;53.358;6.382;2022-12-07T08:19:53;101494.72;;;5.40;100.00
17855;BME280;9053;53.358;6.382;2022-12-07T08:22:23;101495.50;;;5.39;100.00
17855;BME280;9053;53.358;6.382;2022-12-07T08:24:52;101488.69;;;5.41;100.00
17855;BME280;9053;53.358;6.382;2022-12-07T08:27:22;101491.47;;;5.44;100.00
17855;BME280;9053;53.358;6.382;2022-12-07T08:29:53;101495.28;;;5.49;100.00
17855;BME280;9053;53.358;6.382;2022-12-07T08:32:23;101491.25;;;5.54;100.00
17855;BME280;9053;53.358;6.382;2022-12-07T08:34:56;101492.56;;;5.61;100.00
17855;BME280;9053;53.358;6.382;2022-12-07T08:37:27;101480.84;;;5.68;100.00
17855;BME280;9053;53.358;6.382;2022-12-07T08:39:57;101487.44;;;5.76;100.00
17855;BME280;9053;53.358;6.382;2022-12-07T08:42:27;101490.53;;;5.83;100.00
17855;BME280;9053;53.358;6.382;2022-12-07T08:45:06;101480.38;;;5.88;100.00
17855;BME280;9053;53.358;6.382;2022-12-07T08:47:39;101483.88;;;5.89;100.00
17855;BME280;9053;53.358;6.382;2022-12-07T08:50:13;101471.72;;;5.89;100.00
17855;BME280;9053;53.358;6.382;2022-12-07T08:52:43;101467.63;;;5.93;100.00
17855;BME280;9053;53.358;6.382;2022-12-07T08:55:13;101468.72;;;5.96;100.00
17855;BME280;9053;53.358;6.382;2022-12-07T08:57:43;101461.09;;;5.99;100.00
17855;BME280;9053;53.358;6.382;2022-12-07T09:00:14;101459.59;;;6.03;100.00
17855;BME280;9053;53.358;6.382;2022-12-07T09:02:44;101461.66;;;6.09;100.00
17855;BME280;9053;53.358;6.382;2022-12-07T09:05:16;101464.63;;;6.15;100.00
17855;BME280;9053;53.358;6.382;2022-12-07T09:07:49;101460.69;;;6.21;100.00
17855;BME280;9053;53.358;6.382;2022-12-07T09:10:20;101451.38;;;6.25;100.00
17855;BME280;9053;53.358;6.382;2022-12-07T09:12:50;101468.13;;;6.28;100.00
17855;BME280;9053;53.358;6.382;2022-12-07T09:15:20;101471.72;;;6.31;100.00
17855;BME280;9053;53.358;6.382;2022-12-07T09:17:50;101472.00;;;6.35;100.00
17855;BME280;9053;53.358;6.382;2022-12-07T09:20:23;101477.25;;;6.35;100.00
17855;BME280;9053;53.358;6.382;2022-12-07T09:22:54;101489.19;;;6.32;100.00
17855;BME280;9053;53.358;6.382;2022-12-07T09:25:24;101489.19;;;6.32;100.00
17855;BME280;9053;53.358;6.382;2022-12-07T09:27:58;101490.31;;;6.35;100.00
17855;BME280;9053;53.358;6.382;2022-12-07T09:30:28;101493.88;;;6.37;100.00
17855;BME280;9053;53.358;6.382;2022-12-07T09:33:18;101496.72;;;6.40;100.00
17855;BME280;9053;53.358;6.382;2022-12-07T09:35:51;101490.75;;;6.43;100.00
17855;BME280;9053;53.358;6.382;2022-12-07T09:38:21;101485.63;;;6.44;100.00
17855;BME280;9053;53.358;6.382;2022-12-07T09:40:54;101485.63;;;6.44;100.00
17855;BME280;9053;53.358;6.382;2022-12-07T09:43:25;101484.00;;;6.46;100.00
17855;BME280;9053;53.358;6.382;2022-12-07T09:45:55;101478.06;;;6.49;100.00
17855;BME280;9053;53.358;6.382;2022-12-07T09:48:30;101487.97;;;6.55;100.00
17855;BME280;9053;53.358;6.382;2022-12-07T09:51:13;101481.31;;;6.60;100.00
17855;BME280;9053;53.358;6.382;2022-12-07T09:53:50;101491.16;;;6.64;100.00
17855;BME280;9053;53.358;6.382;2022-12-07T09:56:21;101483.66;;;6.70;100.00
17855;BME280;9053;53.358;6.382;2022-12-07T09:58:56;101474.66;;;6.80;100.00
17855;BME280;9053;53.358;6.382;2022-12-07T10:01:30;101471.75;;;6.90;100.00
17855;BME280;9053;53.358;6.382;2022-12-07T10:04:08;101471.41;;;6.99;100.00
17855;BME280;9053;53.358;6.382;2022-12-07T10:06:42;101461.41;;;7.06;100.00
17855;BME280;9053;53.358;6.382;2022-12-07T10:09:14;101460.22;;;7.16;100.00
17855;BME280;9053;53.358;6.382;2022-12-07T10:11:58;101456.22;;;7.23;100.00
17855;BME280;9053;53.358;6.382;2022-12-07T10:14:30;101448.63;;;7.27;100.00
17855;BME280;9053;53.358;6.382;2022-12-07T10:17:32;101456.84;;;7.33;100.00
17855;BME280;9053;53.358;6.382;2022-12-07T10:20:22;101456.34;;;7.41;100.00
17855;BME280;9053;53.358;6.382;2022-12-07T10:23:03;101465.47;;;7.47;100.00
17855;BME280;9053;53.358;6.382;2022-12-07T10:25:35;101472.84;;;7.54;100.00
17855;BME280;9053;53.358;6.382;2022-12-07T10:28:18;101476.72;;;7.61;100.00
17855;BME280;9053;53.358;6.382;2022-12-07T10:30:54;101476.53;;;7.58;100.00
17855;BME280;9053;53.358;6.382;2022-12-07T10:33:31;101469.97;;;7.50;100.00
17855;BME280;9053;53.358;6.382;2022-12-07T10:36:17;101465.88;;;7.39;100.00
17855;BME280;9053;53.358;6.382;2022-12-07T10:38:51;101461.97;;;7.32;100.00
17855;BME280;9053;53.358;6.382;2022-12-07T10:41:21;101458.31;;;7.28;100.00
17855;BME280;9053;53.358;6.382;2022-12-07T10:43:52;101448.63;;;7.27;100.00
17855;BME280;9053;53.358;6.382;2022-12-07T10:46:37;101454.88;;;7.29;100.00
17855;BME280;9053;53.358;6.382;2022-12-07T10:49:24;101451.25;;;7.27;100.00
17855;BME280;9053;53.358;6.382;2022-12-07T10:52:00;101453.69;;;7.24;100.00
17855;BME280;9053;53.358;6.382;2022-12-07T10:54:46;101443.13;;;7.23;100.00
17855;BME280;9053;53.358;6.382;2022-12-07T10:57:36;101429.09;;;7.21;100.00
17855;BME280;9053;53.358;6.382;2022-12-07T11:00:16;101436.94;;;7.21;100.00
17855;BME280;9053;53.358;6.382;2022-12-07T11:03:13;101439.63;;;7.22;100.00
17855;BME280;9053;53.358;6.382;2022-12-07T11:05:49;101437.75;;;7.20;100.00
17855;BME280;9053;53.358;6.382;2022-12-07T11:08:37;101433.41;;;7.20;100.00
17855;BME280;9053;53.358;6.382;2022-12-07T11:11:14;101418.38;;;7.16;100.00
17855;BME280;9053;53.358;6.382;2022-12-07T11:13:50;101424.38;;;7.15;100.00
17855;BME280;9053;53.358;6.382;2022-12-07T11:16:34;101412.88;;;7.11;100.00
17855;BME280;9053;53.358;6.382;2022-12-07T11:19:27;101403.28;;;7.12;100.00
17855;BME280;9053;53.358;6.382;2022-12-07T11:22:06;101406.75;;;7.11;100.00
17855;BME280;9053;53.358;6.382;2022-12-07T11:24:44;101398.91;;;7.11;100.00
17855;BME280;9053;53.358;6.382;2022-12-07T11:27:26;101397.06;;;7.10;100.00
17855;BME280;9053;53.358;6.382;2022-12-07T11:30:17;101403.41;;;7.13;100.00
17855;BME280;9053;53.358;6.382;2022-12-07T11:33:05;101399.06;;;7.14;100.00
17855;BME280;9053;53.358;6.382;2022-12-07T11:35:46;101399.06;;;7.14;100.00
17855;BME280;9053;53.358;6.382;2022-12-07T11:38:23;101397.34;;;7.14;100.00
17855;BME280;9053;53.358;6.382;2022-12-07T11:41:00;101391.28;;;7.15;99.95
17855;BME280;9053;53.358;6.382;2022-12-07T11:43:58;101394.00;;;7.17;99.81
17855;BME280;9053;53.358;6.382;2022-12-07T11:46:42;101385.31;;;7.18;99.78
17855;BME280;9053;53.358;6.382;2022-12-07T11:49:21;101387.31;;;7.22;99.70
17855;BME280;9053;53.358;6.382;2022-12-07T11:51:55;101380.44;;;7.24;99.62
17855;BME280;9053;53.358;6.382;2022-12-07T11:54:29;101379.72;;;7.27;99.59
17855;BME280;9053;53.358;6.382;2022-12-07T11:57:03;101380.72;;;7.29;99.57
17855;BME280;9053;53.358;6.382;2022-12-07T11:59:50;101378.16;;;7.30;99.58
17855;BME280;9053;53.358;6.382;2022-12-07T12:02:26;101374.66;;;7.30;99.56
17855;BME280;9053;53.358;6.382;2022-12-07T12:05:02;101365.06;;;7.30;99.48
17855;BME280;9053;53.358;6.382;2022-12-07T12:07:36;101366.91;;;7.31;99.56
17855;BME280;9053;53.358;6.382;2022-12-07T12:10:37;101368.69;;;7.32;99.51
17855;BME280;9053;53.358;6.382;2022-12-07T12:13:33;101370.50;;;7.33;99.43
17855;BME280;9053;53.358;6.382;2022-12-07T12:19:33;101367.22;;;7.37;99.45
17855;BME280;9053;53.358;6.382;2022-12-07T12:22:11;101368.06;;;7.36;99.47
17855;BME280;9053;53.358;6.382;2022-12-07T12:24:44;101373.91;;;7.32;99.43
17855;BME280;9053;53.358;6.382;2022-12-07T12:27:21;101357.72;;;7.23;99.21
17855;BME280;9053;53.358;6.382;2022-12-07T12:29:54;101352.97;;;7.16;99.23
17855;BME280;9053;53.358;6.382;2022-12-07T12:32:34;101342.41;;;7.14;99.15
17855;BME280;9053;53.358;6.382;2022-12-07T12:35:29;101343.31;;;7.15;98.97
17855;BME280;9053;53.358;6.382;2022-12-07T12:38:29;101338.06;;;7.15;98.85
17855;BME280;9053;53.358;6.382;2022-12-07T12:41:03;101334.47;;;7.13;98.79
17855;BME280;9053;53.358;6.382;2022-12-07T12:43:44;101325.66;;;7.11;98.71
17855;BME280;9053;53.358;6.382;2022-12-07T12:46:37;101321.47;;;7.14;98.62
17855;BME280;9053;53.358;6.382;2022-12-07T12:49:42;101320.75;;;7.17;98.60
17855;BME280;9053;53.358;6.382;2022-12-07T12:55:25;101321.84;;;7.21;98.54
17855;BME280;9053;53.358;6.382;2022-12-07T12:58:33;101315.88;;;7.23;98.65
17855;BME280;9053;53.358;6.382;2022-12-07T13:04:28;101314.06;;;7.22;98.48
17855;BME280;9053;53.358;6.382;2022-12-07T13:07:00;101320.91;;;7.20;98.59
17855;BME280;9053;53.358;6.382;2022-12-07T13:09:31;101330.22;;;7.15;98.47
17855;BME280;9053;53.358;6.382;2022-12-07T13:12:13;101323.84;;;7.10;98.47
17855;BME280;9053;53.358;6.382;2022-12-07T13:14:55;101324.25;;;7.01;98.41
17855;BME280;9053;53.358;6.382;2022-12-07T13:17:59;101332.56;;;6.94;98.44
17855;BME280;9053;53.358;6.382;2022-12-07T13:20:47;101322.66;;;6.88;98.53
17855;BME280;9053;53.358;6.382;2022-12-07T13:23:24;101320.66;;;6.84;98.54
17855;BME280;9053;53.358;6.382;2022-12-07T13:26:00;101313.47;;;6.80;98.64
17855;BME280;9053;53.358;6.382;2022-12-07T13:28:39;101310.84;;;6.80;98.81
17855;BME280;9053;53.358;6.382;2022-12-07T13:31:31;101305.63;;;6.80;98.86
17855;BME280;9053;53.358;6.382;2022-12-07T13:34:04;101309.06;;;6.79;98.89
17855;BME280;9053;53.358;6.382;2022-12-07T13:36:37;101304.66;;;6.78;99.04
17855;BME280;9053;53.358;6.382;2022-12-07T13:39:17;101292.38;;;6.77;99.25
17855;BME280;9053;53.358;6.382;2022-12-07T13:41:50;101287.16;;;6.77;99.26
17855;BME280;9053;53.358;6.382;2022-12-07T13:44:25;101283.63;;;6.77;99.51
17855;BME280;9053;53.358;6.382;2022-12-07T13:47:00;101281.91;;;6.77;99.63
17855;BME280;9053;53.358;6.382;2022-12-07T13:49:38;101285.44;;;6.78;99.72
17855;BME280;9053;53.358;6.382;2022-12-07T13:52:16;101282.81;;;6.78;99.93
17855;BME280;9053;53.358;6.382;2022-12-07T13:54:48;101277.53;;;6.76;100.00
17855;BME280;9053;53.358;6.382;2022-12-07T13:57:18;101281.75;;;6.74;100.00